createdAt,value
2022-10-10T00:01:57.514Z,30.47
2022-10-10T00:04:26.787Z,32.87
2022-10-10T00:06:54.669Z,34.00
2022-10-10T00:09:22.971Z,34.43
2022-10-10T00:11:50.833Z,34.47
2022-10-10T00:14:18.720Z,35.13
2022-10-10T00:16:46.587Z,32.93
2022-10-10T00:19:14.801Z,34.97
2022-10-10T00:21:44.048Z,34.50
2022-10-10T00:24:11.895Z,37.07
2022-10-10T00:26:39.722Z,34.27
2022-10-10T00:29:07.575Z,35.87
2022-10-10T00:31:35.450Z,34.87
2022-10-10T00:34:03.295Z,35.40
2022-10-10T00:36:31.216Z,35.43
2022-10-10T00:39:01.506Z,34.80
2022-10-10T00:41:29.808Z,35.40
2022-10-10T00:44:09.297Z,34.40
2022-10-10T00:46:37.279Z,35.07
2022-10-10T00:49:07.273Z,36.97
2022-10-10T00:51:35.377Z,35.90
2022-10-10T00:54:07.956Z,37.63
2022-10-10T00:56:41.127Z,35.67
2022-10-10T00:59:11.253Z,34.60
2022-10-10T01:01:39.415Z,37.50
2022-10-10T01:04:07.584Z,41.97
2022-10-10T01:06:35.929Z,39.90
2022-10-10T01:09:05.196Z,37.10
2022-10-10T01:11:46.025Z,35.53
2022-10-10T01:14:21.212Z,36.17
2022-10-10T01:16:59.136Z,31.40
2022-10-10T01:19:56.870Z,34.07
2022-10-10T01:22:33.796Z,35.60
2022-10-10T01:25:18.325Z,35.07
2022-10-10T01:27:51.894Z,32.43
2022-10-10T01:30:23.739Z,31.23
2022-10-10T01:32:55.072Z,31.40
2022-10-10T01:35:35.296Z,32.73
2022-10-10T01:38:15.351Z,30.57
2022-10-10T01:40:48.589Z,32.67
2022-10-10T01:43:17.988Z,31.07
2022-10-10T01:45:48.273Z,32.50
2022-10-10T01:48:20.976Z,31.10
2022-10-10T01:51:05.271Z,31.47
2022-10-10T01:53:42.113Z,34.50
2022-10-10T01:56:14.915Z,32.63
2022-10-10T01:59:09.499Z,31.80
2022-10-10T02:01:48.007Z,33.97
2022-10-10T02:04:24.496Z,32.90
2022-10-10T02:06:56.647Z,32.43
2022-10-10T02:09:30.231Z,32.90
2022-10-10T02:12:00.789Z,33.10
2022-10-10T02:14:34.256Z,31.40
2022-10-10T02:17:05.297Z,31.23
2022-10-10T02:19:33.765Z,32.20
2022-10-10T02:22:03.119Z,30.93
2022-10-10T02:24:31.092Z,30.03
2022-10-10T02:27:06.196Z,29.77
2022-10-10T02:29:38.117Z,31.40
2022-10-10T02:32:12.580Z,30.77
2022-10-10T02:34:46.657Z,29.00
2022-10-10T02:37:16.705Z,28.40
2022-10-10T02:39:47.969Z,29.27
2022-10-10T02:42:19.011Z,28.03
2022-10-10T02:44:48.123Z,31.37
2022-10-10T02:47:17.888Z,29.70
2022-10-10T02:49:45.983Z,30.37
2022-10-10T02:52:16.052Z,30.37
2022-10-10T02:54:44.288Z,28.83
2022-10-10T02:57:12.797Z,28.20
2022-10-10T02:59:40.891Z,28.33
2022-10-10T03:02:09.052Z,30.27
2022-10-10T03:04:38.745Z,30.73
2022-10-10T03:07:07.106Z,30.13
2022-10-10T03:09:35.117Z,31.70
2022-10-10T03:12:03.207Z,28.57
2022-10-10T03:14:31.208Z,28.17
2022-10-10T03:16:59.078Z,28.80
2022-10-10T03:19:27.066Z,27.43
2022-10-10T03:21:56.299Z,28.27
2022-10-10T03:24:24.164Z,27.33
2022-10-10T03:26:52.028Z,27.77
2022-10-10T03:29:19.916Z,29.43
2022-10-10T03:31:47.782Z,33.97
2022-10-10T03:34:15.652Z,28.27
2022-10-10T03:36:43.637Z,27.50
2022-10-10T03:39:12.878Z,27.77
2022-10-10T03:41:40.690Z,28.67
2022-10-10T03:44:08.547Z,27.13
2022-10-10T03:46:36.399Z,27.87
2022-10-10T03:49:04.815Z,27.70
2022-10-10T03:51:32.641Z,26.43
2022-10-10T03:54:00.571Z,25.23
2022-10-10T03:56:29.814Z,25.30
2022-10-10T03:59:00.589Z,25.93
2022-10-10T04:01:28.732Z,23.50
2022-10-10T04:03:56.768Z,25.10
2022-10-10T04:06:24.640Z,25.50
2022-10-10T04:08:52.598Z,26.03
2022-10-10T04:11:20.605Z,24.97
2022-10-10T04:13:49.815Z,25.53
2022-10-10T04:16:17.682Z,28.80
2022-10-10T04:18:45.540Z,24.93
2022-10-10T04:21:13.581Z,27.37
2022-10-10T04:23:41.629Z,25.90
2022-10-10T04:26:09.934Z,25.47
2022-10-10T04:28:37.869Z,27.07
2022-10-10T04:31:07.360Z,26.03
2022-10-10T04:33:35.260Z,32.10
2022-10-10T04:36:03.120Z,27.80
2022-10-10T04:38:30.968Z,26.80
2022-10-10T04:40:58.856Z,28.37
2022-10-10T04:43:26.801Z,25.87
2022-10-10T04:45:56.812Z,26.80
2022-10-10T04:48:26.780Z,27.47
2022-10-10T04:50:55.086Z,27.03
2022-10-10T04:53:23.367Z,31.80
2022-10-10T04:55:51.352Z,39.53
2022-10-10T04:58:19.648Z,28.67
2022-10-10T05:00:52.427Z,31.43
2022-10-10T05:03:20.329Z,26.60
2022-10-10T05:05:49.727Z,26.60
2022-10-10T05:08:18.292Z,25.33
2022-10-10T05:10:47.790Z,34.50
2022-10-10T05:13:17.692Z,30.43
2022-10-10T05:15:45.615Z,32.23
2022-10-10T05:18:13.470Z,29.73
2022-10-10T05:20:43.912Z,25.30
2022-10-10T05:23:13.160Z,29.17
2022-10-10T05:25:41.428Z,27.27
2022-10-10T05:28:09.363Z,30.97
2022-10-10T05:30:37.292Z,31.97
2022-10-10T05:33:05.409Z,32.57
2022-10-10T05:35:33.307Z,35.17
2022-10-10T05:38:01.177Z,29.90
2022-10-10T05:40:30.385Z,31.80
2022-10-10T05:42:58.310Z,30.07
2022-10-10T05:45:26.184Z,35.30
2022-10-10T05:47:54.130Z,26.87
2022-10-10T05:50:31.152Z,31.47
2022-10-10T05:52:59.055Z,32.87
2022-10-10T05:55:27.055Z,33.43
2022-10-10T05:57:56.334Z,32.77
2022-10-10T06:00:24.542Z,32.87
2022-10-10T06:02:52.827Z,30.57
2022-10-10T06:05:20.969Z,28.30
2022-10-10T06:08:09.383Z,26.53
2022-10-10T06:10:37.231Z,24.07
2022-10-10T06:13:06.467Z,23.53
2022-10-10T06:15:34.515Z,23.37
2022-10-10T06:18:02.488Z,22.70
2022-10-10T06:20:30.480Z,21.37
2022-10-10T06:22:58.467Z,24.17
2022-10-10T06:25:40.013Z,24.88
2022-10-10T06:28:10.197Z,24.10
2022-10-10T06:30:41.258Z,23.33
2022-10-10T06:33:09.159Z,21.88
2022-10-10T06:35:40.213Z,23.75
2022-10-10T06:38:08.237Z,22.90
2022-10-10T06:40:36.128Z,30.95
2022-10-10T06:43:04.644Z,23.83
2022-10-10T06:45:37.496Z,23.73
2022-10-10T06:48:05.756Z,23.73
2022-10-10T06:50:33.771Z,21.87
2022-10-10T06:53:01.677Z,22.43
2022-10-10T06:55:29.580Z,23.60
2022-10-10T06:57:58.151Z,22.93
2022-10-10T07:00:26.536Z,22.27
2022-10-10T07:02:55.858Z,22.67
2022-10-10T07:05:23.716Z,19.93
2022-10-10T07:07:53.432Z,20.40
2022-10-10T07:10:21.512Z,24.97
2022-10-10T07:12:49.372Z,21.63
2022-10-10T07:15:17.402Z,21.00
2022-10-10T07:17:47.352Z,18.57
2022-10-10T07:20:19.839Z,19.97
2022-10-10T07:22:47.701Z,15.90
2022-10-10T07:25:15.764Z,17.73
2022-10-10T07:27:43.636Z,22.08
2022-10-10T07:30:12.885Z,17.88
2022-10-10T07:32:40.763Z,17.08
2022-10-10T07:35:09.391Z,17.63
2022-10-10T07:37:38.629Z,17.05
2022-10-10T07:40:08.586Z,16.85
2022-10-10T07:42:36.577Z,14.77
2022-10-10T07:45:05.283Z,16.60
2022-10-10T07:47:33.181Z,14.10
2022-10-10T07:50:01.044Z,16.00
2022-10-10T07:52:28.908Z,17.17
2022-10-10T07:54:58.199Z,19.10
2022-10-10T07:57:26.042Z,18.98
2022-10-10T07:59:53.992Z,17.60
2022-10-10T08:02:21.851Z,22.13
2022-10-10T08:04:50.101Z,17.88
2022-10-10T08:07:19.579Z,17.25
2022-10-10T08:09:47.424Z,17.20
2022-10-10T08:12:16.708Z,16.70
2022-10-10T08:14:44.624Z,17.38
2022-10-10T08:17:12.487Z,17.75
2022-10-10T08:19:40.363Z,17.67
2022-10-10T08:22:08.395Z,20.52
2022-10-10T08:24:36.252Z,19.83
2022-10-10T08:27:04.152Z,15.90
2022-10-10T08:29:34.631Z,16.67
2022-10-10T08:32:02.831Z,14.90
2022-10-10T08:34:30.703Z,12.27
2022-10-10T08:36:58.615Z,12.93
2022-10-10T08:39:26.461Z,14.80
2022-10-10T08:41:57.796Z,11.27
2022-10-10T08:44:31.638Z,10.85
2022-10-10T08:47:04.407Z,11.13
2022-10-10T08:49:36.292Z,11.13
2022-10-10T08:52:09.544Z,12.27
2022-10-10T08:54:39.016Z,14.20
2022-10-10T08:57:19.334Z,11.57
2022-10-10T08:59:47.533Z,12.88
2022-10-10T09:02:43.918Z,10.43
2022-10-10T09:05:21.504Z,12.80
2022-10-10T09:08:13.513Z,10.70
2022-10-10T09:10:54.462Z,11.90
2022-10-10T09:13:33.012Z,12.85
2022-10-10T09:16:03.659Z,15.68
2022-10-10T09:18:49.976Z,16.52
2022-10-10T09:21:21.589Z,11.07
2022-10-10T09:23:55.012Z,10.10
2022-10-10T09:26:27.184Z,9.65
2022-10-10T09:29:01.308Z,8.73
2022-10-10T09:31:35.108Z,10.77
2022-10-10T09:34:13.501Z,11.00
2022-10-10T09:36:41.583Z,7.75
2022-10-10T09:39:20.578Z,9.02
2022-10-10T09:41:55.405Z,8.77
2022-10-10T09:44:23.999Z,8.48
2022-10-10T09:46:52.423Z,8.65
2022-10-10T09:49:22.440Z,8.88
2022-10-10T09:51:51.116Z,8.93
2022-10-10T09:54:20.772Z,9.73
2022-10-10T09:56:53.199Z,10.77
2022-10-10T09:59:46.149Z,11.70
2022-10-10T10:02:15.962Z,7.88
2022-10-10T10:04:45.929Z,8.20
2022-10-10T10:07:29.427Z,9.02
2022-10-10T10:09:59.234Z,9.45
2022-10-10T10:12:30.483Z,8.70
2022-10-10T10:15:04.487Z,9.25
2022-10-10T10:17:32.492Z,9.57
2022-10-10T10:20:01.685Z,7.90
2022-10-10T10:22:35.546Z,8.27
2022-10-10T10:25:31.922Z,8.73
2022-10-10T10:28:17.994Z,8.25
2022-10-10T10:30:46.548Z,12.90
2022-10-10T10:33:26.306Z,9.90
2022-10-10T10:36:01.810Z,7.43
2022-10-10T10:38:42.947Z,9.02
2022-10-10T10:41:18.676Z,7.55
2022-10-10T10:44:02.639Z,7.05
2022-10-10T10:46:45.887Z,6.93
2022-10-10T10:49:18.791Z,8.60
2022-10-10T10:52:04.376Z,6.85
2022-10-10T10:54:45.633Z,11.02
2022-10-10T10:57:32.130Z,7.95
2022-10-10T11:00:22.155Z,7.75
2022-10-10T11:03:35.050Z,7.30
2022-10-10T11:06:06.860Z,10.05
2022-10-10T11:09:02.699Z,7.57
2022-10-10T11:11:42.729Z,7.85
2022-10-10T11:14:26.708Z,9.25
2022-10-10T11:17:00.212Z,9.13
2022-10-10T11:19:33.426Z,8.85
2022-10-10T11:22:07.324Z,7.60
2022-10-10T11:24:45.926Z,8.25
2022-10-10T11:27:20.199Z,7.82
2022-10-10T11:29:58.674Z,7.60
2022-10-10T11:32:31.826Z,7.77
2022-10-10T11:35:17.484Z,7.30
2022-10-10T11:37:51.120Z,8.93
2022-10-10T11:40:43.826Z,8.23
2022-10-10T11:43:20.789Z,8.10
2022-10-10T11:45:56.755Z,8.60
2022-10-10T11:48:37.779Z,7.77
2022-10-10T11:51:19.472Z,8.10
2022-10-10T11:53:52.772Z,9.80
2022-10-10T11:56:30.270Z,11.00
2022-10-10T11:59:03.490Z,8.50
2022-10-10T12:01:34.766Z,8.98
2022-10-10T12:04:02.635Z,12.63
2022-10-10T12:06:36.613Z,13.80
2022-10-10T12:09:10.957Z,7.95
2022-10-10T12:11:44.090Z,9.52
2022-10-10T12:14:18.064Z,8.77
2022-10-10T12:16:46.595Z,9.85
2022-10-10T12:19:19.724Z,9.23
2022-10-10T12:21:57.165Z,9.90
2022-10-10T12:24:26.799Z,8.43
2022-10-10T12:27:28.307Z,8.02
2022-10-10T12:30:18.035Z,11.43
2022-10-10T12:32:47.966Z,11.32
2022-10-10T12:35:32.035Z,8.00
2022-10-10T12:38:15.521Z,8.18
2022-10-10T12:41:13.949Z,8.63
2022-10-10T12:44:13.487Z,10.75
2022-10-10T12:46:42.124Z,10.88
2022-10-10T12:49:21.606Z,8.43
2022-10-10T12:52:04.340Z,8.57
2022-10-10T12:54:38.974Z,8.35
2022-10-10T12:57:15.473Z,7.80
2022-10-10T12:59:44.955Z,10.25
2022-10-10T13:02:19.563Z,7.40
2022-10-10T13:04:49.555Z,9.90
2022-10-10T13:07:22.143Z,8.35
2022-10-10T13:09:51.941Z,13.20
2022-10-10T13:12:25.860Z,8.90
2022-10-10T13:14:55.744Z,7.72
2022-10-10T13:17:26.271Z,7.90
2022-10-10T13:19:55.372Z,9.80
2022-10-10T13:22:24.438Z,8.02
2022-10-10T13:24:53.582Z,7.80
2022-10-10T13:27:23.771Z,7.75
2022-10-10T13:29:53.004Z,7.88
2022-10-10T13:32:26.646Z,8.10
2022-10-10T13:34:58.199Z,10.32
2022-10-10T13:37:26.980Z,7.78
2022-10-10T13:39:55.369Z,8.43
2022-10-10T13:42:30.994Z,7.93
2022-10-10T13:45:00.383Z,12.20
2022-10-10T13:47:54.672Z,10.45
2022-10-10T13:50:28.786Z,8.85
2022-10-10T13:53:25.460Z,8.45
2022-10-10T13:56:01.191Z,8.70
2022-10-10T13:58:31.819Z,8.63
2022-10-10T14:01:02.625Z,9.40
2022-10-10T14:03:35.105Z,8.03
2022-10-10T14:06:03.051Z,15.57
2022-10-10T14:08:34.616Z,9.67
2022-10-10T14:11:05.536Z,11.93
2022-10-10T14:13:35.562Z,10.17
2022-10-10T14:16:22.904Z,9.77
2022-10-10T14:18:52.613Z,8.83
2022-10-10T14:21:20.852Z,10.87
2022-10-10T14:23:48.698Z,10.17
2022-10-10T14:26:18.991Z,10.87
2022-10-10T14:28:47.453Z,8.67
2022-10-10T14:31:15.359Z,9.00
2022-10-10T14:33:43.232Z,10.93
2022-10-10T14:36:14.384Z,10.47
2022-10-10T14:38:42.247Z,11.17
2022-10-10T14:41:13.007Z,7.83
2022-10-10T14:43:45.519Z,9.33
2022-10-10T14:46:18.378Z,7.87
2022-10-10T14:48:46.401Z,8.97
2022-10-10T14:51:33.894Z,8.80
2022-10-10T14:54:11.179Z,11.67
2022-10-10T14:57:08.445Z,8.53
2022-10-10T14:59:48.041Z,8.50
2022-10-10T15:02:18.650Z,9.77
2022-10-10T15:04:46.571Z,8.77
2022-10-10T15:07:16.369Z,8.43
2022-10-10T15:10:09.568Z,7.97
2022-10-10T15:12:32.673Z,10.53
2022-10-10T15:15:02.901Z,12.37
2022-10-10T15:17:33.757Z,9.17
2022-10-10T15:20:01.889Z,11.90
2022-10-10T15:22:31.589Z,13.40
2022-10-10T15:24:59.914Z,11.30
2022-10-10T15:27:28.368Z,9.20
2022-10-10T15:29:58.096Z,12.23
2022-10-10T15:32:26.717Z,11.53
2022-10-10T15:34:54.682Z,9.07
2022-10-10T15:37:26.548Z,11.80
2022-10-10T15:39:55.821Z,10.03
2022-10-10T15:42:23.776Z,10.80
2022-10-10T15:44:52.353Z,10.40
2022-10-10T15:47:21.643Z,11.37
2022-10-10T15:49:49.876Z,11.37
2022-10-10T15:52:18.316Z,15.73
2022-10-10T15:54:49.682Z,10.43
2022-10-10T15:57:19.275Z,11.83
2022-10-10T15:59:47.792Z,11.37
2022-10-10T16:02:15.972Z,11.20
2022-10-10T16:04:43.854Z,10.37
2022-10-10T16:07:26.890Z,11.77
2022-10-10T16:09:57.895Z,10.70
2022-10-10T16:12:27.313Z,10.03
2022-10-10T16:14:55.487Z,13.27
2022-10-10T16:17:23.949Z,11.67
2022-10-10T16:19:52.393Z,13.53
2022-10-10T16:22:20.632Z,17.40
2022-10-10T16:25:17.265Z,15.57
2022-10-10T16:27:38.720Z,15.60
2022-10-10T16:30:08.238Z,15.97
2022-10-10T16:32:41.790Z,17.47
2022-10-10T16:35:11.231Z,16.40
2022-10-10T16:37:39.323Z,13.87
2022-10-10T16:40:08.344Z,14.33
2022-10-10T16:42:36.320Z,16.20
2022-10-10T16:45:06.653Z,15.93
2022-10-10T16:47:34.614Z,21.77
2022-10-10T16:50:03.100Z,15.63
2022-10-10T16:52:33.001Z,18.90
2022-10-10T16:55:00.881Z,23.47
2022-10-10T16:57:28.774Z,22.23
2022-10-10T16:59:56.654Z,23.23
2022-10-10T17:02:25.976Z,24.20
2022-10-10T17:04:53.822Z,25.23
2022-10-10T17:07:21.821Z,13.60
2022-10-10T17:09:49.720Z,17.50
2022-10-10T17:12:17.916Z,23.97
2022-10-10T17:14:45.861Z,17.73
2022-10-10T17:17:14.124Z,20.10
2022-10-10T17:19:43.583Z,18.73
2022-10-10T17:22:11.521Z,19.60
2022-10-10T17:24:39.394Z,23.97
2022-10-10T17:27:07.394Z,21.13
2022-10-10T17:29:35.324Z,20.07
2022-10-10T17:32:06.507Z,17.23
2022-10-10T17:34:35.230Z,29.27
2022-10-10T17:37:04.998Z,20.60
2022-10-10T17:39:33.090Z,17.83
2022-10-10T17:42:01.123Z,18.93
2022-10-10T17:44:29.149Z,16.33
2022-10-10T17:46:57.051Z,19.80
2022-10-10T17:49:25.113Z,14.73
2022-10-10T17:51:53.013Z,13.73
2022-10-10T17:54:23.228Z,18.33
2022-10-10T17:56:51.295Z,18.43
2022-10-10T17:59:19.183Z,17.13
2022-10-10T18:01:47.029Z,17.43
2022-10-10T18:04:16.552Z,17.07
2022-10-10T18:06:44.570Z,16.60
2022-10-10T18:09:12.608Z,19.70
2022-10-10T18:11:41.867Z,19.30
2022-10-10T18:14:09.851Z,18.77
2022-10-10T18:16:38.112Z,18.17
2022-10-10T18:19:08.149Z,14.77
2022-10-10T18:21:36.259Z,20.20
2022-10-10T18:24:04.435Z,17.50
2022-10-10T18:26:33.706Z,15.17
2022-10-10T18:29:03.052Z,16.03
2022-10-10T18:31:33.149Z,13.73
2022-10-10T18:34:01.762Z,14.53
2022-10-10T18:36:32.077Z,19.03
2022-10-10T18:39:00.764Z,16.47
2022-10-10T18:41:34.231Z,16.50
2022-10-10T18:44:04.867Z,15.80
2022-10-10T18:46:32.927Z,15.00
2022-10-10T18:49:02.151Z,14.93
2022-10-10T18:51:31.223Z,13.70
2022-10-10T18:54:02.208Z,15.07
2022-10-10T18:56:31.497Z,14.00
2022-10-10T18:59:02.200Z,18.07
2022-10-10T19:01:35.241Z,18.90
2022-10-10T19:04:04.605Z,21.00
2022-10-10T19:06:32.671Z,21.53
2022-10-10T19:09:02.503Z,22.83
2022-10-10T19:11:32.295Z,19.17
2022-10-10T19:14:01.407Z,18.63
2022-10-10T19:16:29.549Z,20.07
2022-10-10T19:18:59.749Z,19.13
2022-10-10T19:21:29.862Z,20.63
2022-10-10T19:23:59.833Z,18.50
2022-10-10T19:26:33.112Z,18.80
2022-10-10T19:29:06.418Z,19.47
2022-10-10T19:31:34.743Z,18.33
2022-10-10T19:34:04.138Z,22.47
2022-10-10T19:36:32.011Z,15.93
2022-10-10T19:39:00.924Z,18.97
2022-10-10T19:41:29.798Z,17.90
2022-10-10T19:43:58.710Z,18.23
2022-10-10T19:46:28.004Z,20.33
2022-10-10T19:48:58.931Z,20.83
2022-10-10T19:51:29.725Z,20.03
2022-10-10T19:53:57.732Z,26.97
2022-10-10T19:56:26.980Z,26.20
2022-10-10T19:58:56.043Z,37.93
2022-10-10T20:01:29.100Z,35.83
2022-10-10T20:03:57.904Z,35.87
2022-10-10T20:06:26.055Z,27.60
2022-10-10T20:08:55.444Z,25.90
2022-10-10T20:11:26.250Z,27.57
2022-10-10T20:13:55.450Z,20.77
2022-10-10T20:16:24.473Z,18.77
2022-10-10T20:18:52.405Z,18.77
2022-10-10T20:21:23.713Z,19.40
2022-10-10T20:23:51.792Z,18.50
2022-10-10T20:26:23.438Z,20.23
2022-10-10T20:28:52.347Z,15.63
2022-10-10T20:31:22.398Z,19.10
2022-10-10T20:33:51.414Z,17.87
2022-10-10T20:36:21.235Z,17.43
2022-10-10T20:38:53.784Z,20.77
2022-10-10T20:41:24.545Z,23.60
2022-10-10T20:43:58.271Z,17.07
2022-10-10T20:46:27.683Z,19.07
2022-10-10T20:48:56.160Z,16.90
2022-10-10T20:51:24.356Z,16.27
2022-10-10T20:53:56.987Z,18.13
2022-10-10T20:56:26.963Z,15.97
2022-10-10T20:58:55.015Z,14.83
2022-10-10T21:01:25.087Z,14.93
2022-10-10T21:03:53.367Z,17.50
2022-10-10T21:06:23.922Z,13.70
2022-10-10T21:08:52.400Z,17.93
2022-10-10T21:11:20.979Z,12.53
2022-10-10T21:13:56.355Z,14.17
2022-10-10T21:16:26.154Z,19.13
2022-10-10T21:18:58.055Z,16.03
2022-10-10T21:21:27.061Z,16.40
2022-10-10T21:23:56.488Z,16.10
2022-10-10T21:26:26.621Z,20.33
2022-10-10T21:28:56.491Z,17.50
2022-10-10T21:31:26.317Z,14.13
2022-10-10T21:33:54.613Z,15.50
2022-10-10T21:36:24.228Z,13.33
2022-10-10T21:38:52.116Z,12.40
2022-10-10T21:41:21.588Z,14.47
2022-10-10T21:43:52.210Z,12.33
2022-10-10T21:46:23.458Z,15.17
2022-10-10T21:48:52.310Z,14.77
2022-10-10T21:51:20.635Z,14.07
2022-10-10T21:53:49.177Z,17.33
2022-10-10T21:56:17.808Z,13.10
2022-10-10T21:58:46.316Z,13.30
2022-10-10T22:01:16.486Z,13.93
2022-10-10T22:03:47.205Z,13.00
2022-10-10T22:06:18.172Z,12.70
2022-10-10T22:08:47.492Z,15.90
2022-10-10T22:11:17.573Z,15.83
2022-10-10T22:13:45.511Z,13.57
2022-10-10T22:16:13.545Z,13.33
2022-10-10T22:18:41.920Z,12.87
2022-10-10T22:21:13.812Z,14.70
2022-10-10T22:23:41.998Z,13.13
2022-10-10T22:26:11.412Z,20.40
2022-10-10T22:28:39.771Z,13.63
2022-10-10T22:31:08.449Z,14.90
2022-10-10T22:33:36.376Z,15.07
2022-10-10T22:36:05.110Z,14.13
2022-10-10T22:38:37.039Z,13.77
2022-10-10T22:41:04.902Z,13.40
2022-10-10T22:43:32.862Z,13.87
2022-10-10T22:46:00.867Z,13.57
2022-10-10T22:48:28.950Z,14.20
2022-10-10T22:51:01.616Z,14.03
2022-10-10T22:53:29.903Z,14.10
2022-10-10T22:55:59.547Z,14.03
2022-10-10T22:58:27.584Z,12.90
2022-10-10T23:00:55.517Z,12.87
2022-10-10T23:03:23.426Z,14.10
2022-10-10T23:05:51.239Z,14.03
2022-10-10T23:08:19.072Z,13.30
2022-10-10T23:10:48.013Z,13.77
2022-10-10T23:13:17.191Z,13.87
2022-10-10T23:15:45.195Z,13.50
2022-10-10T23:18:13.105Z,15.27
2022-10-10T23:20:40.963Z,14.23
2022-10-10T23:23:08.868Z,14.73
2022-10-10T23:25:41.821Z,17.83
2022-10-10T23:28:10.151Z,14.70
2022-10-10T23:30:41.040Z,17.03
2022-10-10T23:33:09.267Z,14.43
2022-10-10T23:35:37.220Z,14.97
2022-10-10T23:38:05.311Z,14.70
2022-10-10T23:40:34.126Z,14.57
2022-10-10T23:43:02.122Z,14.73
2022-10-10T23:45:30.004Z,14.50
2022-10-10T23:47:59.269Z,14.83
2022-10-10T23:50:27.112Z,14.13
2022-10-10T23:52:54.946Z,14.73
2022-10-10T23:55:22.905Z,14.27
2022-10-10T23:57:50.764Z,15.20
